createdAt,value
2023-01-06T00:01:25.247Z,93033.13
2023-01-06T00:03:58.555Z,93036.41
2023-01-06T00:06:29.635Z,93032.34
2023-01-06T00:09:00.731Z,93044.59
2023-01-06T00:11:31.743Z,93033.97
2023-01-06T00:14:00.840Z,93042.78
2023-01-06T00:16:30.142Z,93033.34
2023-01-06T00:19:00.955Z,93031.56
2023-01-06T00:21:30.191Z,93026.63
2023-01-06T00:23:58.969Z,93027.84
2023-01-06T00:26:27.492Z,93037.00
2023-01-06T00:28:58.440Z,93032.22
2023-01-06T00:31:27.210Z,93032.84
2023-01-06T00:33:57.838Z,93029.75
2023-01-06T00:36:27.227Z,93018.66
2023-01-06T00:38:55.770Z,93027.94
2023-01-06T00:41:42.285Z,93017.97
2023-01-06T00:44:12.174Z,93022.56
2023-01-06T00:46:40.675Z,93020.16
2023-01-06T00:49:09.367Z,93018.34
2023-01-06T00:51:40.355Z,93014.88
2023-01-06T00:54:10.572Z,93014.63
2023-01-06T00:56:39.908Z,93016.28
2023-01-06T00:59:09.244Z,93013.00
2023-01-06T01:01:40.574Z,93020.41
2023-01-06T01:04:10.234Z,93021.53
2023-01-06T01:06:39.480Z,93013.84
2023-01-06T01:09:09.084Z,93020.41
2023-01-06T01:11:54.943Z,93021.88
2023-01-06T01:14:23.640Z,93018.28
2023-01-06T01:16:53.641Z,93018.16
2023-01-06T01:19:22.558Z,93019.28
2023-01-06T01:21:51.155Z,93014.44
2023-01-06T01:24:22.213Z,93014.59
2023-01-06T01:26:51.194Z,93016.78
2023-01-06T01:29:21.136Z,93017.41
2023-01-06T01:31:49.871Z,93020.13
2023-01-06T01:34:20.631Z,93019.97
2023-01-06T01:36:51.333Z,93017.38
2023-01-06T01:39:24.549Z,93018.59
2023-01-06T01:41:53.744Z,93007.25
2023-01-06T01:45:01.943Z,93012.53
2023-01-06T01:47:42.529Z,93015.47
2023-01-06T01:50:22.918Z,93010.03
2023-01-06T01:52:56.080Z,93012.09
2023-01-06T01:55:26.637Z,93015.72
2023-01-06T01:58:00.894Z,93016.94
2023-01-06T02:00:29.537Z,93021.19
2023-01-06T02:02:58.584Z,93014.91
2023-01-06T02:05:29.479Z,93016.06
2023-01-06T02:07:59.801Z,93014.53
2023-01-06T02:10:29.243Z,93012.56
2023-01-06T02:13:00.225Z,93003.91
2023-01-06T02:15:34.205Z,93008.00
2023-01-06T02:18:29.951Z,93007.38
2023-01-06T02:21:24.495Z,93011.09
2023-01-06T02:24:21.867Z,93005.66
2023-01-06T02:27:22.177Z,92998.81
2023-01-06T02:30:33.611Z,92995.88
2023-01-06T02:33:20.102Z,92994.31
2023-01-06T02:36:30.132Z,92988.47
2023-01-06T02:39:13.839Z,92984.75
2023-01-06T02:41:46.429Z,92985.88
2023-01-06T02:44:22.171Z,92982.69
2023-01-06T02:47:09.079Z,92985.72
2023-01-06T02:49:48.680Z,92976.72
2023-01-06T02:52:24.790Z,92979.22
2023-01-06T02:54:59.947Z,92974.63
2023-01-06T02:57:38.283Z,92969.44
2023-01-06T03:00:14.365Z,92973.69
2023-01-06T03:02:47.622Z,92971.59
2023-01-06T03:05:18.921Z,92977.22
2023-01-06T03:07:49.351Z,92978.78
2023-01-06T03:10:21.358Z,92967.56
2023-01-06T03:12:54.904Z,92969.38
2023-01-06T03:15:25.553Z,92972.75
2023-01-06T03:17:54.465Z,92964.97
2023-01-06T03:20:24.457Z,92971.34
2023-01-06T03:22:52.895Z,92960.91
2023-01-06T03:25:21.718Z,92965.81
2023-01-06T03:27:50.431Z,92958.75
2023-01-06T03:30:19.198Z,92969.84
2023-01-06T03:32:56.448Z,92970.66
2023-01-06T03:35:43.059Z,92972.09
2023-01-06T03:38:21.493Z,92963.38
2023-01-06T03:40:59.727Z,92964.47
2023-01-06T03:43:34.646Z,92965.63
2023-01-06T03:46:24.493Z,92966.72
2023-01-06T03:49:01.760Z,92960.69
2023-01-06T03:51:42.541Z,92969.41
2023-01-06T03:54:23.618Z,92966.72
2023-01-06T03:56:59.228Z,92960.72
2023-01-06T03:59:30.773Z,92966.66
2023-01-06T04:02:00.456Z,92961.31
2023-01-06T04:04:29.031Z,92958.41
2023-01-06T04:06:58.957Z,92963.50
2023-01-06T04:09:28.233Z,92968.63
2023-01-06T04:12:13.934Z,92966.88
2023-01-06T04:14:42.375Z,92964.00
2023-01-06T04:17:12.929Z,92968.16
2023-01-06T04:19:42.077Z,92968.91
2023-01-06T04:22:11.860Z,92962.66
2023-01-06T04:24:40.335Z,92958.66
2023-01-06T04:27:09.257Z,92956.47
2023-01-06T04:29:37.703Z,92958.69
2023-01-06T04:32:06.671Z,92969.38
2023-01-06T04:34:35.150Z,92974.19
2023-01-06T04:37:03.596Z,92972.91
2023-01-06T04:39:33.501Z,92966.91
2023-01-06T04:42:01.943Z,92969.84
2023-01-06T04:44:30.689Z,92965.03
2023-01-06T04:46:59.342Z,92970.06
2023-01-06T04:49:27.769Z,92970.38
2023-01-06T04:51:56.317Z,92975.84
2023-01-06T04:54:24.747Z,92970.56
2023-01-06T04:56:54.686Z,92969.81
2023-01-06T04:59:23.172Z,92958.38
2023-01-06T05:01:51.725Z,92964.44
2023-01-06T05:04:20.643Z,92969.34
2023-01-06T05:06:49.122Z,92974.94
2023-01-06T05:09:17.628Z,92970.72
2023-01-06T05:11:46.336Z,92963.72
2023-01-06T05:14:17.097Z,92966.91
2023-01-06T05:16:45.675Z,92964.72
2023-01-06T05:19:14.253Z,92961.03
2023-01-06T05:21:42.689Z,92961.94
2023-01-06T05:24:11.619Z,92959.63
2023-01-06T05:26:40.295Z,92960.91
2023-01-06T05:29:08.748Z,92955.28
2023-01-06T05:31:38.571Z,92953.31
2023-01-06T05:34:07.026Z,92945.06
2023-01-06T05:36:35.667Z,92951.69
2023-01-06T05:39:04.335Z,92946.00
2023-01-06T05:41:32.832Z,92949.25
2023-01-06T05:44:01.271Z,92948.97
2023-01-06T05:46:29.790Z,92949.94
2023-01-06T05:49:01.056Z,92957.28
2023-01-06T05:51:30.038Z,92955.97
2023-01-06T05:53:58.525Z,92953.59
2023-01-06T05:56:27.030Z,92954.69
2023-01-06T05:58:56.410Z,92956.34
2023-01-06T06:01:27.191Z,92959.72
2023-01-06T06:03:56.652Z,92963.22
2023-01-06T06:06:29.329Z,92960.94
2023-01-06T06:08:58.192Z,92946.59
2023-01-06T06:11:26.788Z,92949.13
2023-01-06T06:13:57.648Z,92953.16
2023-01-06T06:16:28.218Z,92939.75
2023-01-06T06:18:58.708Z,92949.91
2023-01-06T06:21:31.393Z,92940.47
2023-01-06T06:24:01.010Z,92944.56
2023-01-06T06:26:30.526Z,92936.88
2023-01-06T06:28:59.050Z,92939.19
2023-01-06T06:31:30.193Z,92934.88
2023-01-06T06:34:01.452Z,92924.03
2023-01-06T06:36:32.063Z,92925.50
2023-01-06T06:39:02.152Z,92927.25
2023-01-06T06:41:30.694Z,92918.06
2023-01-06T06:43:59.162Z,92919.91
2023-01-06T06:46:27.623Z,92924.56
2023-01-06T06:48:56.284Z,92919.38
2023-01-06T06:51:25.643Z,92928.81
2023-01-06T06:53:55.454Z,92937.03
2023-01-06T06:56:24.270Z,92922.97
2023-01-06T06:58:52.738Z,92926.66
2023-01-06T07:01:22.339Z,92928.03
2023-01-06T07:03:51.325Z,92925.78
2023-01-06T07:06:22.932Z,92929.16
2023-01-06T07:08:52.121Z,92928.81
2023-01-06T07:11:22.658Z,92937.59
2023-01-06T07:13:51.292Z,92941.47
2023-01-06T07:16:23.434Z,92932.44
2023-01-06T07:18:52.411Z,92920.25
2023-01-06T07:21:21.426Z,92926.81
2023-01-06T07:23:49.908Z,92942.09
2023-01-06T07:26:18.568Z,92940.28
2023-01-06T07:28:48.370Z,92941.06
2023-01-06T07:31:17.033Z,92953.31
2023-01-06T07:33:45.485Z,92955.75
2023-01-06T07:36:13.944Z,92962.22
2023-01-06T07:38:42.433Z,92961.19
2023-01-06T07:41:11.161Z,92961.09
2023-01-06T07:43:39.590Z,92963.19
2023-01-06T07:46:09.724Z,92969.03
2023-01-06T07:48:38.291Z,92969.13
2023-01-06T07:51:07.143Z,92970.09
2023-01-06T07:53:35.900Z,92957.91
2023-01-06T07:56:04.651Z,92962.06
2023-01-06T07:58:33.668Z,92961.19
2023-01-06T08:01:08.912Z,92962.06
2023-01-06T08:03:37.455Z,92961.78
2023-01-06T08:06:10.398Z,92971.28
2023-01-06T08:08:39.710Z,92975.41
2023-01-06T08:11:10.015Z,92975.41
2023-01-06T08:13:38.945Z,92972.75
2023-01-06T08:16:11.326Z,92975.72
2023-01-06T08:18:40.422Z,92975.00
2023-01-06T08:21:11.600Z,92973.66
2023-01-06T08:23:40.575Z,92970.63
2023-01-06T08:26:13.487Z,92960.41
2023-01-06T08:28:42.521Z,92960.50
2023-01-06T08:31:14.317Z,92964.13
2023-01-06T08:33:43.238Z,92963.16
2023-01-06T08:36:15.658Z,92962.03
2023-01-06T08:38:44.712Z,92961.28
2023-01-06T08:41:14.184Z,92969.91
2023-01-06T08:43:45.988Z,92979.34
2023-01-06T08:46:18.178Z,92983.34
2023-01-06T08:48:48.760Z,92992.72
2023-01-06T08:51:21.287Z,92991.03
2023-01-06T08:53:49.736Z,92990.78
2023-01-06T08:56:20.764Z,92985.63
2023-01-06T08:58:53.241Z,92991.03
2023-01-06T09:01:25.704Z,92993.25
2023-01-06T09:03:54.821Z,92999.53
2023-01-06T09:06:24.251Z,93002.69
2023-01-06T09:08:53.678Z,92999.00
2023-01-06T09:11:22.435Z,93015.81
2023-01-06T09:13:51.694Z,93008.19
2023-01-06T09:16:22.469Z,93017.78
2023-01-06T09:18:51.619Z,93003.66
2023-01-06T09:21:22.756Z,93009.69
2023-01-06T09:23:51.634Z,93007.81
2023-01-06T09:26:21.752Z,93015.22
2023-01-06T09:28:50.352Z,93029.03
2023-01-06T09:31:19.237Z,93022.88
2023-01-06T09:33:49.097Z,93021.31
2023-01-06T09:36:17.581Z,93022.88
2023-01-06T09:38:46.043Z,93032.84
2023-01-06T09:41:51.678Z,93028.31
2023-01-06T09:44:26.902Z,93032.78
2023-01-06T09:46:55.701Z,93040.28
2023-01-06T09:49:31.718Z,93037.13
2023-01-06T09:52:05.089Z,93041.31
2023-01-06T09:54:37.437Z,93044.81
2023-01-06T09:57:12.039Z,93035.59
2023-01-06T09:59:49.250Z,93040.00
2023-01-06T10:02:27.337Z,93042.25
2023-01-06T10:04:57.463Z,93044.59
2023-01-06T10:07:35.226Z,93044.03
2023-01-06T10:10:19.084Z,93045.41
2023-01-06T10:13:05.196Z,93043.09
2023-01-06T10:15:42.535Z,93043.16
2023-01-06T10:18:26.983Z,93042.75
2023-01-06T10:21:12.810Z,93031.81
2023-01-06T10:24:21.874Z,93038.06
2023-01-06T10:26:56.559Z,93040.28
2023-01-06T10:29:32.217Z,93028.75
2023-01-06T10:32:02.278Z,93022.59
2023-01-06T10:34:31.322Z,93017.47
2023-01-06T10:37:11.404Z,93016.91
2023-01-06T10:39:44.221Z,93013.09
2023-01-06T10:42:41.803Z,93011.13
2023-01-06T10:45:12.930Z,93018.25
2023-01-06T10:47:44.048Z,93007.59
2023-01-06T10:50:16.090Z,93001.09
2023-01-06T10:52:48.183Z,92996.03
2023-01-06T10:55:36.065Z,92989.97
2023-01-06T10:58:16.088Z,92989.41
2023-01-06T11:01:00.755Z,92991.50
2023-01-06T11:03:34.785Z,92989.81
2023-01-06T11:06:10.220Z,92981.56
2023-01-06T11:08:41.039Z,92986.69
2023-01-06T11:11:27.372Z,92976.66
2023-01-06T11:13:59.438Z,92976.00
2023-01-06T11:16:30.691Z,92981.03
2023-01-06T11:19:01.772Z,92984.00
2023-01-06T11:21:42.004Z,92977.28
2023-01-06T11:24:21.633Z,92982.94
2023-01-06T11:26:55.403Z,92969.25
2023-01-06T11:29:31.884Z,92978.06
2023-01-06T11:32:05.585Z,92969.91
2023-01-06T11:34:34.989Z,92973.81
2023-01-06T11:37:03.666Z,92967.94
2023-01-06T11:39:36.622Z,92973.00
2023-01-06T11:42:14.418Z,92967.09
2023-01-06T11:44:44.632Z,92949.28
2023-01-06T11:47:17.807Z,92946.63
2023-01-06T11:49:51.110Z,92946.56
2023-01-06T11:52:27.095Z,92930.44
2023-01-06T11:55:03.254Z,92938.75
2023-01-06T11:57:43.796Z,92939.41
2023-01-06T12:00:37.291Z,92923.22
2023-01-06T12:03:18.247Z,92916.88
2023-01-06T12:05:53.179Z,92915.75
2023-01-06T12:08:25.753Z,92924.16
2023-01-06T12:11:02.198Z,92916.56
2023-01-06T12:13:32.221Z,92908.81
2023-01-06T12:16:07.753Z,92908.22
2023-01-06T12:18:39.684Z,92913.56
2023-01-06T12:21:14.573Z,92914.78
2023-01-06T12:23:45.598Z,92915.00
2023-01-06T12:26:21.211Z,92911.22
2023-01-06T12:28:51.603Z,92914.78
2023-01-06T12:31:28.233Z,92918.63
2023-01-06T12:34:02.625Z,92914.19
2023-01-06T12:36:40.559Z,92921.50
2023-01-06T12:39:15.155Z,92920.94
2023-01-06T12:41:51.907Z,92917.91
2023-01-06T12:44:37.779Z,92923.13
2023-01-06T12:47:14.654Z,92924.78
2023-01-06T12:49:49.907Z,92919.34
2023-01-06T12:52:23.823Z,92912.94
2023-01-06T12:54:55.299Z,92910.47
2023-01-06T12:57:50.898Z,92914.50
2023-01-06T13:00:45.695Z,92906.31
2023-01-06T13:03:48.454Z,92909.19
2023-01-06T13:06:33.082Z,92904.78
2023-01-06T13:09:17.979Z,92908.66
2023-01-06T13:12:32.533Z,92904.50
2023-01-06T13:15:08.793Z,92905.09
2023-01-06T13:17:43.863Z,92903.63
2023-01-06T13:20:21.530Z,92901.69
2023-01-06T13:23:05.343Z,92896.69
2023-01-06T13:25:58.372Z,92895.72
2023-01-06T13:28:40.684Z,92895.47
2023-01-06T13:31:40.976Z,92888.16
2023-01-06T13:34:53.295Z,92886.88
2023-01-06T13:37:38.380Z,92889.41
2023-01-06T13:40:13.487Z,92886.72
2023-01-06T13:42:48.255Z,92891.44
2023-01-06T13:45:23.168Z,92896.31
2023-01-06T13:47:52.401Z,92887.13
2023-01-06T13:50:22.203Z,92888.00
2023-01-06T13:52:52.320Z,92894.03
2023-01-06T13:55:31.099Z,92890.06
2023-01-06T13:58:35.495Z,92885.53
2023-01-06T14:01:11.115Z,92884.31
2023-01-06T14:03:41.552Z,92891.44
2023-01-06T14:06:14.138Z,92885.31
2023-01-06T14:08:51.985Z,92889.38
2023-01-06T14:11:29.591Z,92885.47
2023-01-06T14:14:00.244Z,92886.34
2023-01-06T14:16:47.067Z,92889.66
2023-01-06T14:19:19.481Z,92895.75
2023-01-06T14:21:49.184Z,92901.47
2023-01-06T14:24:28.139Z,92899.91
2023-01-06T14:27:01.180Z,92900.28
2023-01-06T14:30:04.778Z,92892.38
2023-01-06T14:33:29.573Z,92899.88
2023-01-06T14:36:06.534Z,92902.88
2023-01-06T14:38:44.151Z,92902.88
2023-01-06T14:41:22.745Z,92899.88
2023-01-06T14:43:58.308Z,92905.91
2023-01-06T14:46:31.303Z,92901.13
2023-01-06T14:49:02.863Z,92908.91
2023-01-06T14:51:34.526Z,92906.97
2023-01-06T14:54:07.078Z,92904.91
2023-01-06T14:56:35.935Z,92904.44
2023-01-06T14:59:13.429Z,92909.56
2023-01-06T15:01:45.205Z,92913.16
2023-01-06T15:04:26.339Z,92904.84
2023-01-06T15:07:14.044Z,92904.84
2023-01-06T15:09:42.520Z,92908.00
2023-01-06T15:12:26.119Z,92914.22
2023-01-06T15:14:55.324Z,92904.50
2023-01-06T15:17:24.063Z,92903.94
2023-01-06T15:19:54.237Z,92898.94
2023-01-06T15:22:26.709Z,92902.50
2023-01-06T15:24:56.733Z,92905.59
2023-01-06T15:27:25.423Z,92899.34
2023-01-06T15:29:56.592Z,92899.63
2023-01-06T15:32:28.170Z,92910.41
2023-01-06T15:34:59.545Z,92916.06
2023-01-06T15:37:34.962Z,92915.38
2023-01-06T15:40:05.632Z,92915.66
2023-01-06T15:42:36.316Z,92911.50
2023-01-06T15:45:07.845Z,92907.50
2023-01-06T15:47:42.213Z,92919.78
2023-01-06T15:50:19.447Z,92917.81
2023-01-06T15:52:53.601Z,92909.75
2023-01-06T15:55:27.568Z,92904.44
2023-01-06T15:58:00.857Z,92916.66
2023-01-06T16:00:32.661Z,92921.06
2023-01-06T16:03:01.207Z,92914.75
2023-01-06T16:05:40.432Z,92913.13
2023-01-06T16:08:23.123Z,92918.88
2023-01-06T16:11:01.144Z,92914.34
2023-01-06T16:13:30.864Z,92923.91
2023-01-06T16:16:04.076Z,92926.44
2023-01-06T16:18:35.576Z,92931.81
2023-01-06T16:21:17.781Z,92929.75
2023-01-06T16:23:52.361Z,92937.88
2023-01-06T16:26:25.226Z,92931.56
2023-01-06T16:28:56.787Z,92931.28
2023-01-06T16:31:33.866Z,92934.97
2023-01-06T16:34:25.273Z,92936.91
2023-01-06T16:36:57.508Z,92923.22
2023-01-06T16:39:28.583Z,92932.28
2023-01-06T16:42:43.240Z,92932.00
2023-01-06T16:45:24.090Z,92926.63
2023-01-06T16:47:52.899Z,92928.31
2023-01-06T16:50:25.209Z,92935.53
2023-01-06T16:53:03.312Z,92936.38
2023-01-06T16:55:34.251Z,92941.03
2023-01-06T16:58:07.372Z,92940.06
2023-01-06T17:00:40.467Z,92941.22
2023-01-06T17:03:15.124Z,92944.19
2023-01-06T17:05:44.429Z,92942.50
2023-01-06T17:08:15.967Z,92943.34
2023-01-06T17:10:46.242Z,92946.09
2023-01-06T17:13:35.846Z,92944.25
2023-01-06T17:16:15.893Z,92950.75
2023-01-06T17:18:56.340Z,92945.63
2023-01-06T17:21:30.035Z,92949.91
2023-01-06T17:24:03.685Z,92948.78
2023-01-06T17:26:33.794Z,92953.31
2023-01-06T17:29:03.723Z,92955.94
2023-01-06T17:31:35.844Z,92950.75
2023-01-06T17:34:13.732Z,92961.78
2023-01-06T17:36:45.671Z,92959.59
2023-01-06T17:39:24.464Z,92962.63
2023-01-06T17:42:03.134Z,92955.97
2023-01-06T17:44:39.173Z,92956.78
2023-01-06T17:47:14.209Z,92950.19
2023-01-06T17:49:45.687Z,92949.50
2023-01-06T17:52:20.152Z,92953.72
2023-01-06T17:55:12.902Z,92957.25
2023-01-06T17:57:47.171Z,92945.47
2023-01-06T18:00:28.207Z,92957.28
2023-01-06T18:03:01.501Z,92946.66
2023-01-06T18:06:18.936Z,92946.94
2023-01-06T18:08:49.208Z,92953.13
2023-01-06T18:11:33.719Z,92950.63
2023-01-06T18:14:26.480Z,92945.06
2023-01-06T18:16:59.072Z,92947.28
2023-01-06T18:19:31.979Z,92948.63
2023-01-06T18:22:01.739Z,92954.06
2023-01-06T18:24:36.029Z,92954.72
2023-01-06T18:27:10.629Z,92954.50
2023-01-06T18:29:45.081Z,92949.22
2023-01-06T18:32:31.930Z,92954.44
2023-01-06T18:35:02.512Z,92950.75
2023-01-06T18:37:34.332Z,92953.38
2023-01-06T18:40:06.076Z,92956.16
2023-01-06T18:42:37.666Z,92956.94
2023-01-06T18:45:26.738Z,92954.78
2023-01-06T18:47:57.466Z,92955.22
2023-01-06T18:50:31.141Z,92955.28
2023-01-06T18:53:01.395Z,92948.94
2023-01-06T18:55:38.561Z,92952.75
2023-01-06T18:58:22.311Z,92956.16
2023-01-06T19:00:57.357Z,92948.66
2023-01-06T19:03:38.048Z,92956.34
2023-01-06T19:06:40.275Z,92956.50
2023-01-06T19:09:21.208Z,92959.16
2023-01-06T19:11:59.231Z,92963.13
2023-01-06T19:14:29.676Z,92956.47
2023-01-06T19:17:00.742Z,92957.19
2023-01-06T19:19:38.263Z,92949.13
2023-01-06T19:22:21.263Z,92950.84
2023-01-06T19:24:59.030Z,92958.06
2023-01-06T19:27:45.566Z,92958.19
2023-01-06T19:30:42.947Z,92956.91
2023-01-06T19:33:39.690Z,92952.31
2023-01-06T19:36:40.904Z,92957.19
2023-01-06T19:39:30.321Z,92960.09
2023-01-06T19:42:17.739Z,92945.19
2023-01-06T19:44:48.756Z,92943.34
2023-01-06T19:47:23.880Z,92944.03
2023-01-06T19:49:58.755Z,92933.69
2023-01-06T19:52:34.870Z,92940.84
2023-01-06T19:55:22.943Z,92940.88
2023-01-06T19:57:54.437Z,92946.47
2023-01-06T20:00:28.181Z,92937.00
2023-01-06T20:03:01.995Z,92936.44
2023-01-06T20:05:32.981Z,92937.31
2023-01-06T20:08:01.420Z,92938.88
2023-01-06T20:10:29.879Z,92943.09
2023-01-06T20:12:59.271Z,92931.88
2023-01-06T20:15:27.719Z,92931.81
2023-01-06T20:17:56.394Z,92925.19
2023-01-06T20:20:24.865Z,92934.91
2023-01-06T20:22:54.664Z,92935.06
2023-01-06T20:25:23.181Z,92934.69
2023-01-06T20:27:51.780Z,92934.22
2023-01-06T20:30:20.603Z,92930.19
2023-01-06T20:32:49.325Z,92939.81
2023-01-06T20:35:17.920Z,92934.34
2023-01-06T20:37:46.424Z,92935.56
2023-01-06T20:40:16.463Z,92931.75
2023-01-06T20:42:45.288Z,92937.59
2023-01-06T20:45:14.881Z,92938.03
2023-01-06T20:47:44.114Z,92928.56
2023-01-06T20:50:14.488Z,92932.09
2023-01-06T20:52:45.380Z,92921.78
2023-01-06T20:55:15.474Z,92921.94
2023-01-06T20:57:43.966Z,92929.41
2023-01-06T21:00:14.435Z,92928.00
2023-01-06T21:02:42.971Z,92930.13
2023-01-06T21:05:11.712Z,92921.50
2023-01-06T21:07:40.487Z,92933.38
2023-01-06T21:10:09.893Z,92922.78
2023-01-06T21:12:40.028Z,92923.78
2023-01-06T21:15:10.403Z,92929.75
2023-01-06T21:17:38.935Z,92917.59
2023-01-06T21:20:09.650Z,92915.25
2023-01-06T21:22:38.108Z,92917.38
2023-01-06T21:25:07.537Z,92913.72
2023-01-06T21:27:36.045Z,92908.25
2023-01-06T21:30:07.204Z,92912.41
2023-01-06T21:32:35.657Z,92915.72
2023-01-06T21:35:04.290Z,92918.06
2023-01-06T21:37:32.783Z,92908.53
2023-01-06T21:40:01.273Z,92907.53
2023-01-06T21:42:47.590Z,92905.66
2023-01-06T21:45:17.854Z,92895.34
2023-01-06T21:47:46.338Z,92903.31
2023-01-06T21:50:14.855Z,92906.19
2023-01-06T21:52:45.012Z,92906.69
2023-01-06T21:55:13.951Z,92903.72
2023-01-06T21:57:42.975Z,92901.88
2023-01-06T22:00:13.066Z,92906.41
2023-01-06T22:02:42.961Z,92903.72
2023-01-06T22:05:11.724Z,92902.28
2023-01-06T22:07:48.303Z,92895.47
2023-01-06T22:10:19.996Z,92899.06
2023-01-06T22:12:50.378Z,92896.31
2023-01-06T22:15:19.120Z,92894.13
2023-01-06T22:17:49.240Z,92894.69
2023-01-06T22:20:18.766Z,92890.78
2023-01-06T22:22:47.730Z,92888.94
2023-01-06T22:25:16.435Z,92886.97
2023-01-06T22:27:45.153Z,92881.72
2023-01-06T22:30:14.139Z,92889.91
2023-01-06T22:32:46.481Z,92883.28
2023-01-06T22:35:18.801Z,92881.09
2023-01-06T22:37:47.400Z,92885.47
2023-01-06T22:40:16.423Z,92884.88
2023-01-06T22:42:45.385Z,92887.63
2023-01-06T22:45:14.110Z,92890.53
2023-01-06T22:47:42.729Z,92888.94
2023-01-06T22:50:12.314Z,92887.44
2023-01-06T22:52:42.409Z,92879.44
2023-01-06T22:55:11.245Z,92878.03
2023-01-06T22:57:39.917Z,92874.09
2023-01-06T23:00:14.029Z,92876.34
2023-01-06T23:02:42.747Z,92872.59
2023-01-06T23:05:11.943Z,92869.44
2023-01-06T23:07:44.022Z,92872.44
2023-01-06T23:10:14.740Z,92872.97
2023-01-06T23:12:44.459Z,92868.03
2023-01-06T23:15:13.299Z,92857.00
2023-01-06T23:17:41.951Z,92857.47
2023-01-06T23:20:11.950Z,92857.31
2023-01-06T23:22:41.776Z,92856.69
2023-01-06T23:25:10.762Z,92854.09
2023-01-06T23:27:39.961Z,92851.69
2023-01-06T23:30:10.357Z,92857.63
2023-01-06T23:32:38.796Z,92856.00
2023-01-06T23:35:07.967Z,92856.84
2023-01-06T23:37:36.633Z,92863.25
2023-01-06T23:40:07.709Z,92854.78
2023-01-06T23:42:40.888Z,92848.66
2023-01-06T23:45:16.426Z,92844.63
2023-01-06T23:47:45.168Z,92846.25
2023-01-06T23:50:14.381Z,92835.41
2023-01-06T23:52:42.817Z,92842.16
2023-01-06T23:55:12.655Z,92834.75
2023-01-06T23:57:41.292Z,92836.03
